sensor_id;sensor_type;location;lat;lon;timestamp;temperature;humidity
16479;DHT22;8350;52.316;10.530;2023-01-19T00:00:52;-0.30;1.00
16479;DHT22;8350;52.316;10.530;2023-01-19T00:03:21;-0.30;1.00
16479;DHT22;8350;52.316;10.530;2023-01-19T00:05:48;-0.30;1.00
16479;DHT22;8350;52.316;10.530;2023-01-19T00:08:16;-0.30;1.00
16479;DHT22;8350;52.316;10.530;2023-01-19T00:10:48;-0.30;1.00
16479;DHT22;8350;52.316;10.530;2023-01-19T00:13:15;-0.30;1.00
16479;DHT22;8350;52.316;10.530;2023-01-19T00:15:43;-0.30;1.00
16479;DHT22;8350;52.316;10.530;2023-01-19T00:18:14;-0.40;1.00
16479;DHT22;8350;52.316;10.530;2023-01-19T00:20:45;-0.30;1.00
16479;DHT22;8350;52.316;10.530;2023-01-19T00:23:13;-0.30;1.00
16479;DHT22;8350;52.316;10.530;2023-01-19T00:25:40;-0.40;1.00
16479;DHT22;8350;52.316;10.530;2023-01-19T00:28:09;-0.50;1.00
16479;DHT22;8350;52.316;10.530;2023-01-19T00:30:36;-0.50;1.00
16479;DHT22;8350;52.316;10.530;2023-01-19T00:33:03;-0.40;1.00
16479;DHT22;8350;52.316;10.530;2023-01-19T00:35:30;-0.40;1.00
16479;DHT22;8350;52.316;10.530;2023-01-19T00:37:59;-0.40;1.00
16479;DHT22;8350;52.316;10.530;2023-01-19T00:40:27;-0.40;1.00
16479;DHT22;8350;52.316;10.530;2023-01-19T00:42:54;-0.30;1.00
16479;DHT22;8350;52.316;10.530;2023-01-19T00:45:21;-0.30;1.00
16479;DHT22;8350;52.316;10.530;2023-01-19T00:47:50;-0.30;1.00
16479;DHT22;8350;52.316;10.530;2023-01-19T00:50:19;-0.30;1.00
16479;DHT22;8350;52.316;10.530;2023-01-19T00:52:46;-0.20;1.00
16479;DHT22;8350;52.316;10.530;2023-01-19T00:55:15;-0.10;1.00
16479;DHT22;8350;52.316;10.530;2023-01-19T00:57:42;-0.10;1.00
16479;DHT22;8350;52.316;10.530;2023-01-19T01:00:12;-0.10;1.00
16479;DHT22;8350;52.316;10.530;2023-01-19T01:02:40;-0.10;1.00
16479;DHT22;8350;52.316;10.530;2023-01-19T01:05:08;0.00;1.00
16479;DHT22;8350;52.316;10.530;2023-01-19T01:07:35;0.00;1.00
16479;DHT22;8350;52.316;10.530;2023-01-19T01:10:06;0.00;1.00
16479;DHT22;8350;52.316;10.530;2023-01-19T01:12:35;0.00;1.00
16479;DHT22;8350;52.316;10.530;2023-01-19T01:15:03;0.10;1.00
16479;DHT22;8350;52.316;10.530;2023-01-19T01:17:30;0.10;1.00
16479;DHT22;8350;52.316;10.530;2023-01-19T01:19:59;0.10;1.00
16479;DHT22;8350;52.316;10.530;2023-01-19T01:22:29;0.10;1.00
16479;DHT22;8350;52.316;10.530;2023-01-19T01:24:56;0.10;1.00
16479;DHT22;8350;52.316;10.530;2023-01-19T01:27:25;0.20;1.00
16479;DHT22;8350;52.316;10.530;2023-01-19T01:30:00;0.10;1.00
16479;DHT22;8350;52.316;10.530;2023-01-19T01:32:27;0.10;1.00
16479;DHT22;8350;52.316;10.530;2023-01-19T01:34:54;0.20;1.00
16479;DHT22;8350;52.316;10.530;2023-01-19T01:37:21;0.20;1.00
16479;DHT22;8350;52.316;10.530;2023-01-19T01:39:48;0.20;1.00
16479;DHT22;8350;52.316;10.530;2023-01-19T01:42:16;0.20;1.00
16479;DHT22;8350;52.316;10.530;2023-01-19T01:44:49;0.20;1.00
16479;DHT22;8350;52.316;10.530;2023-01-19T01:47:22;0.20;1.00
16479;DHT22;8350;52.316;10.530;2023-01-19T01:49:55;0.10;1.00
16479;DHT22;8350;52.316;10.530;2023-01-19T01:54:51;0.10;1.00
16479;DHT22;8350;52.316;10.530;2023-01-19T01:57:19;0.10;1.00
16479;DHT22;8350;52.316;10.530;2023-01-19T01:59:48;0.10;1.00
16479;DHT22;8350;52.316;10.530;2023-01-19T02:02:20;0.10;1.00
16479;DHT22;8350;52.316;10.530;2023-01-19T02:05:08;0.10;1.00
16479;DHT22;8350;52.316;10.530;2023-01-19T02:07:40;0.10;1.00
16479;DHT22;8350;52.316;10.530;2023-01-19T02:10:26;0.10;1.00
16479;DHT22;8350;52.316;10.530;2023-01-19T02:13:11;0.10;1.00
16479;DHT22;8350;52.316;10.530;2023-01-19T02:15:46;0.10;1.00
16479;DHT22;8350;52.316;10.530;2023-01-19T02:18:15;0.00;1.00
16479;DHT22;8350;52.316;10.530;2023-01-19T02:20:49;0.00;1.00
16479;DHT22;8350;52.316;10.530;2023-01-19T02:23:30;0.00;1.00
16479;DHT22;8350;52.316;10.530;2023-01-19T02:25:59;0.00;1.00
16479;DHT22;8350;52.316;10.530;2023-01-19T02:28:27;0.00;1.00
16479;DHT22;8350;52.316;10.530;2023-01-19T02:30:55;0.00;1.00
16479;DHT22;8350;52.316;10.530;2023-01-19T02:33:22;0.00;1.00
16479;DHT22;8350;52.316;10.530;2023-01-19T02:35:50;0.00;1.00
16479;DHT22;8350;52.316;10.530;2023-01-19T02:38:18;0.00;1.00
16479;DHT22;8350;52.316;10.530;2023-01-19T02:40:48;0.00;1.00
16479;DHT22;8350;52.316;10.530;2023-01-19T02:43:16;0.00;1.00
16479;DHT22;8350;52.316;10.530;2023-01-19T02:45:45;0.00;1.00
16479;DHT22;8350;52.316;10.530;2023-01-19T02:48:13;0.00;1.00
16479;DHT22;8350;52.316;10.530;2023-01-19T02:50:46;0.00;1.00
16479;DHT22;8350;52.316;10.530;2023-01-19T02:53:36;0.10;1.00
16479;DHT22;8350;52.316;10.530;2023-01-19T02:59:00;0.10;1.00
16479;DHT22;8350;52.316;10.530;2023-01-19T03:01:41;0.10;1.00
16479;DHT22;8350;52.316;10.530;2023-01-19T03:04:17;0.10;1.00
16479;DHT22;8350;52.316;10.530;2023-01-19T03:06:52;0.10;1.00
16479;DHT22;8350;52.316;10.530;2023-01-19T03:09:26;0.10;1.00
16479;DHT22;8350;52.316;10.530;2023-01-19T03:12:03;0.10;1.00
16479;DHT22;8350;52.316;10.530;2023-01-19T03:14:39;0.10;1.00
16479;DHT22;8350;52.316;10.530;2023-01-19T03:17:08;0.10;1.00
16479;DHT22;8350;52.316;10.530;2023-01-19T03:19:39;0.20;1.00
16479;DHT22;8350;52.316;10.530;2023-01-19T03:22:13;0.20;1.00
16479;DHT22;8350;52.316;10.530;2023-01-19T03:24:43;0.20;1.00
16479;DHT22;8350;52.316;10.530;2023-01-19T03:27:15;0.20;1.00
16479;DHT22;8350;52.316;10.530;2023-01-19T03:29:49;0.10;1.00
16479;DHT22;8350;52.316;10.530;2023-01-19T03:32:20;0.10;1.00
16479;DHT22;8350;52.316;10.530;2023-01-19T03:34:53;0.10;1.00
16479;DHT22;8350;52.316;10.530;2023-01-19T03:37:21;0.10;1.00
16479;DHT22;8350;52.316;10.530;2023-01-19T03:39:49;0.10;1.00
16479;DHT22;8350;52.316;10.530;2023-01-19T03:42:21;0.10;1.00
16479;DHT22;8350;52.316;10.530;2023-01-19T03:45:00;0.10;1.00
16479;DHT22;8350;52.316;10.530;2023-01-19T03:47:27;0.00;1.00
16479;DHT22;8350;52.316;10.530;2023-01-19T03:49:55;0.00;1.00
16479;DHT22;8350;52.316;10.530;2023-01-19T03:52:27;0.00;1.00
16479;DHT22;8350;52.316;10.530;2023-01-19T03:55:00;0.00;1.00
16479;DHT22;8350;52.316;10.530;2023-01-19T03:57:30;-0.10;1.00
16479;DHT22;8350;52.316;10.530;2023-01-19T03:59:57;-0.10;1.00
16479;DHT22;8350;52.316;10.530;2023-01-19T04:02:24;-0.20;1.00
16479;DHT22;8350;52.316;10.530;2023-01-19T04:04:54;-0.10;1.00
16479;DHT22;8350;52.316;10.530;2023-01-19T04:07:21;-0.10;1.00
16479;DHT22;8350;52.316;10.530;2023-01-19T04:09:51;-0.10;1.00
16479;DHT22;8350;52.316;10.530;2023-01-19T04:12:18;-0.10;1.00
16479;DHT22;8350;52.316;10.530;2023-01-19T04:14:48;-0.10;1.00
16479;DHT22;8350;52.316;10.530;2023-01-19T04:17:15;-0.10;1.00
16479;DHT22;8350;52.316;10.530;2023-01-19T04:19:42;-0.10;1.00
16479;DHT22;8350;52.316;10.530;2023-01-19T04:22:09;-0.10;1.00
16479;DHT22;8350;52.316;10.530;2023-01-19T04:24:36;-0.10;1.00
16479;DHT22;8350;52.316;10.530;2023-01-19T04:27:03;-0.10;1.00
16479;DHT22;8350;52.316;10.530;2023-01-19T04:29:30;-0.10;1.00
16479;DHT22;8350;52.316;10.530;2023-01-19T04:31:58;-0.10;1.00
16479;DHT22;8350;52.316;10.530;2023-01-19T04:34:25;-0.20;1.00
16479;DHT22;8350;52.316;10.530;2023-01-19T04:36:52;-0.20;1.00
16479;DHT22;8350;52.316;10.530;2023-01-19T04:39:20;-0.20;1.00
16479;DHT22;8350;52.316;10.530;2023-01-19T04:41:48;-0.20;1.00
16479;DHT22;8350;52.316;10.530;2023-01-19T04:44:16;-0.20;1.00
16479;DHT22;8350;52.316;10.530;2023-01-19T04:46:43;-0.20;1.00
16479;DHT22;8350;52.316;10.530;2023-01-19T04:49:11;-0.10;1.00
16479;DHT22;8350;52.316;10.530;2023-01-19T04:51:43;-0.10;1.00
16479;DHT22;8350;52.316;10.530;2023-01-19T04:54:10;-0.20;1.00
16479;DHT22;8350;52.316;10.530;2023-01-19T04:56:37;-0.10;1.00
16479;DHT22;8350;52.316;10.530;2023-01-19T04:59:05;-0.10;1.00
16479;DHT22;8350;52.316;10.530;2023-01-19T05:01:32;-0.10;1.00
16479;DHT22;8350;52.316;10.530;2023-01-19T05:03:59;0.00;1.00
16479;DHT22;8350;52.316;10.530;2023-01-19T05:06:29;-0.10;1.00
16479;DHT22;8350;52.316;10.530;2023-01-19T05:08:56;-0.10;1.00
16479;DHT22;8350;52.316;10.530;2023-01-19T05:11:23;-0.10;1.00
16479;DHT22;8350;52.316;10.530;2023-01-19T05:13:50;-0.10;1.00
16479;DHT22;8350;52.316;10.530;2023-01-19T05:16:17;-0.10;1.00
16479;DHT22;8350;52.316;10.530;2023-01-19T05:18:44;-0.10;1.00
16479;DHT22;8350;52.316;10.530;2023-01-19T05:21:11;-0.10;1.00
16479;DHT22;8350;52.316;10.530;2023-01-19T05:23:40;-0.10;1.00
16479;DHT22;8350;52.316;10.530;2023-01-19T05:26:07;-0.10;1.00
16479;DHT22;8350;52.316;10.530;2023-01-19T05:28:34;-0.10;1.00
16479;DHT22;8350;52.316;10.530;2023-01-19T05:31:01;-0.10;1.00
16479;DHT22;8350;52.316;10.530;2023-01-19T05:33:29;-0.10;1.00
16479;DHT22;8350;52.316;10.530;2023-01-19T05:35:56;-0.10;1.00
16479;DHT22;8350;52.316;10.530;2023-01-19T05:38:23;0.00;1.00
16479;DHT22;8350;52.316;10.530;2023-01-19T05:40:56;-0.10;1.00
16479;DHT22;8350;52.316;10.530;2023-01-19T05:43:23;-0.10;1.00
16479;DHT22;8350;52.316;10.530;2023-01-19T05:45:51;-0.10;1.00
16479;DHT22;8350;52.316;10.530;2023-01-19T05:48:24;-0.10;1.00
16479;DHT22;8350;52.316;10.530;2023-01-19T05:50:56;-0.10;1.00
16479;DHT22;8350;52.316;10.530;2023-01-19T05:53:23;-0.10;1.00
16479;DHT22;8350;52.316;10.530;2023-01-19T05:56:01;-0.10;1.00
16479;DHT22;8350;52.316;10.530;2023-01-19T05:58:29;-0.10;1.00
16479;DHT22;8350;52.316;10.530;2023-01-19T06:00:57;-0.10;1.00
16479;DHT22;8350;52.316;10.530;2023-01-19T06:03:30;-0.10;1.00
16479;DHT22;8350;52.316;10.530;2023-01-19T06:05:57;-0.10;1.00
16479;DHT22;8350;52.316;10.530;2023-01-19T06:08:26;-0.10;1.00
16479;DHT22;8350;52.316;10.530;2023-01-19T06:10:53;-0.10;1.00
16479;DHT22;8350;52.316;10.530;2023-01-19T06:13:24;-0.20;1.00
16479;DHT22;8350;52.316;10.530;2023-01-19T06:15:56;-0.20;1.00
16479;DHT22;8350;52.316;10.530;2023-01-19T06:18:23;-0.20;1.00
16479;DHT22;8350;52.316;10.530;2023-01-19T06:20:54;-0.10;1.00
16479;DHT22;8350;52.316;10.530;2023-01-19T06:23:23;-0.10;1.00
16479;DHT22;8350;52.316;10.530;2023-01-19T06:25:50;-0.10;1.60
16479;DHT22;8350;52.316;10.530;2023-01-19T06:28:17;-0.10;1.00
16479;DHT22;8350;52.316;10.530;2023-01-19T06:30:47;0.00;1.00
16479;DHT22;8350;52.316;10.530;2023-01-19T06:33:14;0.10;1.00
16479;DHT22;8350;52.316;10.530;2023-01-19T06:35:42;0.10;1.00
16479;DHT22;8350;52.316;10.530;2023-01-19T06:38:09;0.20;1.00
16479;DHT22;8350;52.316;10.530;2023-01-19T06:40:37;0.10;1.00
16479;DHT22;8350;52.316;10.530;2023-01-19T06:43:04;0.20;1.00
16479;DHT22;8350;52.316;10.530;2023-01-19T06:45:32;0.20;1.00
16479;DHT22;8350;52.316;10.530;2023-01-19T06:48:00;0.30;1.00
16479;DHT22;8350;52.316;10.530;2023-01-19T06:50:29;0.30;1.00
16479;DHT22;8350;52.316;10.530;2023-01-19T06:52:56;0.30;1.00
16479;DHT22;8350;52.316;10.530;2023-01-19T06:55:22;0.40;1.00
16479;DHT22;8350;52.316;10.530;2023-01-19T06:57:55;0.40;1.00
16479;DHT22;8350;52.316;10.530;2023-01-19T07:00:23;0.40;1.00
16479;DHT22;8350;52.316;10.530;2023-01-19T07:02:51;0.50;1.00
16479;DHT22;8350;52.316;10.530;2023-01-19T07:05:19;0.50;1.00
16479;DHT22;8350;52.316;10.530;2023-01-19T07:07:50;0.50;1.00
16479;DHT22;8350;52.316;10.530;2023-01-19T07:10:17;0.50;1.00
16479;DHT22;8350;52.316;10.530;2023-01-19T07:12:44;0.50;1.00
16479;DHT22;8350;52.316;10.530;2023-01-19T07:15:12;0.50;1.00
16479;DHT22;8350;52.316;10.530;2023-01-19T07:17:39;0.50;1.00
16479;DHT22;8350;52.316;10.530;2023-01-19T07:20:07;0.60;1.00
16479;DHT22;8350;52.316;10.530;2023-01-19T07:22:39;0.60;1.00
16479;DHT22;8350;52.316;10.530;2023-01-19T07:25:08;0.70;1.00
16479;DHT22;8350;52.316;10.530;2023-01-19T07:27:35;0.70;1.00
16479;DHT22;8350;52.316;10.530;2023-01-19T07:30:05;0.70;1.00
16479;DHT22;8350;52.316;10.530;2023-01-19T07:32:33;0.70;1.00
16479;DHT22;8350;52.316;10.530;2023-01-19T07:35:00;0.80;1.00
16479;DHT22;8350;52.316;10.530;2023-01-19T07:37:27;0.80;1.00
16479;DHT22;8350;52.316;10.530;2023-01-19T07:39:55;0.80;1.00
16479;DHT22;8350;52.316;10.530;2023-01-19T07:42:22;0.90;1.00
16479;DHT22;8350;52.316;10.530;2023-01-19T07:44:49;0.90;1.00
16479;DHT22;8350;52.316;10.530;2023-01-19T07:47:16;0.90;1.00
16479;DHT22;8350;52.316;10.530;2023-01-19T07:49:43;0.90;1.00
16479;DHT22;8350;52.316;10.530;2023-01-19T07:52:10;1.00;1.00
16479;DHT22;8350;52.316;10.530;2023-01-19T07:54:37;1.00;1.00
16479;DHT22;8350;52.316;10.530;2023-01-19T07:57:05;1.00;1.00
16479;DHT22;8350;52.316;10.530;2023-01-19T07:59:32;1.10;1.00
16479;DHT22;8350;52.316;10.530;2023-01-19T08:01:59;1.10;1.00
16479;DHT22;8350;52.316;10.530;2023-01-19T08:04:27;1.10;1.00
16479;DHT22;8350;52.316;10.530;2023-01-19T08:06:54;1.10;1.00
16479;DHT22;8350;52.316;10.530;2023-01-19T08:09:22;1.20;1.00
16479;DHT22;8350;52.316;10.530;2023-01-19T08:11:49;1.20;1.00
16479;DHT22;8350;52.316;10.530;2023-01-19T08:14:20;1.20;1.00
16479;DHT22;8350;52.316;10.530;2023-01-19T08:16:47;1.20;1.00
16479;DHT22;8350;52.316;10.530;2023-01-19T08:19:14;1.30;1.00
16479;DHT22;8350;52.316;10.530;2023-01-19T08:21:41;1.40;1.00
16479;DHT22;8350;52.316;10.530;2023-01-19T08:24:17;1.40;1.00
16479;DHT22;8350;52.316;10.530;2023-01-19T08:26:46;1.50;1.00
16479;DHT22;8350;52.316;10.530;2023-01-19T08:29:13;1.50;1.00
16479;DHT22;8350;52.316;10.530;2023-01-19T08:31:41;1.50;1.00
16479;DHT22;8350;52.316;10.530;2023-01-19T08:34:09;1.50;1.00
16479;DHT22;8350;52.316;10.530;2023-01-19T08:36:36;1.50;1.00
16479;DHT22;8350;52.316;10.530;2023-01-19T08:39:03;1.50;1.00
16479;DHT22;8350;52.316;10.530;2023-01-19T08:41:30;1.60;1.00
16479;DHT22;8350;52.316;10.530;2023-01-19T08:44:00;1.60;1.00
16479;DHT22;8350;52.316;10.530;2023-01-19T08:46:27;1.60;1.00
16479;DHT22;8350;52.316;10.530;2023-01-19T08:48:55;1.50;1.00
16479;DHT22;8350;52.316;10.530;2023-01-19T08:51:22;1.50;1.00
16479;DHT22;8350;52.316;10.530;2023-01-19T08:53:49;1.50;1.00
16479;DHT22;8350;52.316;10.530;2023-01-19T08:56:16;1.50;1.00
16479;DHT22;8350;52.316;10.530;2023-01-19T08:58:44;1.50;1.00
16479;DHT22;8350;52.316;10.530;2023-01-19T09:01:12;1.50;1.00
16479;DHT22;8350;52.316;10.530;2023-01-19T09:03:41;1.50;1.00
16479;DHT22;8350;52.316;10.530;2023-01-19T09:06:11;1.50;1.00
16479;DHT22;8350;52.316;10.530;2023-01-19T09:08:39;1.60;1.00
16479;DHT22;8350;52.316;10.530;2023-01-19T09:11:09;1.70;1.00
16479;DHT22;8350;52.316;10.530;2023-01-19T09:13:39;1.90;1.00
16479;DHT22;8350;52.316;10.530;2023-01-19T09:16:07;2.00;1.00
16479;DHT22;8350;52.316;10.530;2023-01-19T09:18:36;2.20;1.00
16479;DHT22;8350;52.316;10.530;2023-01-19T09:21:03;2.30;1.00
16479;DHT22;8350;52.316;10.530;2023-01-19T09:23:31;2.40;1.00
16479;DHT22;8350;52.316;10.530;2023-01-19T09:25:59;2.50;1.00
16479;DHT22;8350;52.316;10.530;2023-01-19T09:28:27;2.50;1.00
16479;DHT22;8350;52.316;10.530;2023-01-19T09:30:54;2.50;1.00
16479;DHT22;8350;52.316;10.530;2023-01-19T09:33:21;2.50;1.00
16479;DHT22;8350;52.316;10.530;2023-01-19T09:35:49;2.60;1.00
16479;DHT22;8350;52.316;10.530;2023-01-19T09:38:17;2.60;1.00
16479;DHT22;8350;52.316;10.530;2023-01-19T09:40:48;2.60;1.00
16479;DHT22;8350;52.316;10.530;2023-01-19T09:43:21;2.50;1.00
16479;DHT22;8350;52.316;10.530;2023-01-19T09:45:55;2.40;1.00
16479;DHT22;8350;52.316;10.530;2023-01-19T09:48:41;2.40;1.00
16479;DHT22;8350;52.316;10.530;2023-01-19T09:51:14;2.40;1.00
16479;DHT22;8350;52.316;10.530;2023-01-19T09:53:50;2.30;1.00
16479;DHT22;8350;52.316;10.530;2023-01-19T09:56:19;2.30;1.00
16479;DHT22;8350;52.316;10.530;2023-01-19T09:58:48;2.30;1.00
16479;DHT22;8350;52.316;10.530;2023-01-19T10:01:23;2.30;1.00
16479;DHT22;8350;52.316;10.530;2023-01-19T10:04:10;2.30;1.00
16479;DHT22;8350;52.316;10.530;2023-01-19T10:06:42;2.30;1.00
16479;DHT22;8350;52.316;10.530;2023-01-19T10:09:19;2.30;1.00
16479;DHT22;8350;52.316;10.530;2023-01-19T10:11:57;2.30;1.00
16479;DHT22;8350;52.316;10.530;2023-01-19T10:14:32;2.30;1.00
16479;DHT22;8350;52.316;10.530;2023-01-19T10:17:08;2.30;1.00
16479;DHT22;8350;52.316;10.530;2023-01-19T10:19:45;2.30;1.00
16479;DHT22;8350;52.316;10.530;2023-01-19T10:22:19;2.30;1.00
16479;DHT22;8350;52.316;10.530;2023-01-19T10:24:49;2.20;1.00
16479;DHT22;8350;52.316;10.530;2023-01-19T10:27:22;2.20;1.00
16479;DHT22;8350;52.316;10.530;2023-01-19T10:29:50;2.20;1.00
16479;DHT22;8350;52.316;10.530;2023-01-19T10:32:21;2.30;1.00
16479;DHT22;8350;52.316;10.530;2023-01-19T10:34:49;2.30;1.00
16479;DHT22;8350;52.316;10.530;2023-01-19T10:37:24;2.30;1.00
16479;DHT22;8350;52.316;10.530;2023-01-19T10:39:56;2.30;1.00
16479;DHT22;8350;52.316;10.530;2023-01-19T10:42:28;2.40;1.00
16479;DHT22;8350;52.316;10.530;2023-01-19T10:44:55;2.40;1.00
16479;DHT22;8350;52.316;10.530;2023-01-19T10:47:29;2.30;1.00
16479;DHT22;8350;52.316;10.530;2023-01-19T10:49:56;2.40;1.00
16479;DHT22;8350;52.316;10.530;2023-01-19T10:52:28;2.30;1.00
16479;DHT22;8350;52.316;10.530;2023-01-19T10:54:56;2.40;1.00
16479;DHT22;8350;52.316;10.530;2023-01-19T10:57:29;2.30;1.00
16479;DHT22;8350;52.316;10.530;2023-01-19T10:59:57;2.40;1.00
16479;DHT22;8350;52.316;10.530;2023-01-19T11:02:25;2.30;1.00
16479;DHT22;8350;52.316;10.530;2023-01-19T11:04:56;2.30;1.00
16479;DHT22;8350;52.316;10.530;2023-01-19T11:07:27;2.30;1.00
16479;DHT22;8350;52.316;10.530;2023-01-19T11:10:18;2.40;1.00
16479;DHT22;8350;52.316;10.530;2023-01-19T11:12:55;2.40;1.00
16479;DHT22;8350;52.316;10.530;2023-01-19T11:15:24;2.40;1.00
16479;DHT22;8350;52.316;10.530;2023-01-19T11:17:53;2.40;1.00
16479;DHT22;8350;52.316;10.530;2023-01-19T11:20:23;2.40;1.00
16479;DHT22;8350;52.316;10.530;2023-01-19T11:23:03;2.40;1.00
16479;DHT22;8350;52.316;10.530;2023-01-19T11:25:35;2.30;1.00
16479;DHT22;8350;52.316;10.530;2023-01-19T11:28:04;2.40;1.00
16479;DHT22;8350;52.316;10.530;2023-01-19T11:30:31;2.30;1.00
16479;DHT22;8350;52.316;10.530;2023-01-19T11:33:00;2.30;1.00
16479;DHT22;8350;52.316;10.530;2023-01-19T11:35:33;2.40;1.00
16479;DHT22;8350;52.316;10.530;2023-01-19T11:38:14;2.40;1.00
16479;DHT22;8350;52.316;10.530;2023-01-19T11:40:52;2.40;1.00
16479;DHT22;8350;52.316;10.530;2023-01-19T11:43:22;2.50;1.00
16479;DHT22;8350;52.316;10.530;2023-01-19T11:45:50;2.40;1.00
16479;DHT22;8350;52.316;10.530;2023-01-19T11:48:27;2.40;1.00
16479;DHT22;8350;52.316;10.530;2023-01-19T11:50:56;2.40;1.00
16479;DHT22;8350;52.316;10.530;2023-01-19T11:53:27;2.30;1.00
16479;DHT22;8350;52.316;10.530;2023-01-19T11:56:00;2.30;1.00
16479;DHT22;8350;52.316;10.530;2023-01-19T11:58:30;2.30;1.00
16479;DHT22;8350;52.316;10.530;2023-01-19T12:01:01;2.30;1.00
16479;DHT22;8350;52.316;10.530;2023-01-19T12:03:33;2.20;1.00
16479;DHT22;8350;52.316;10.530;2023-01-19T12:06:05;2.30;1.00
16479;DHT22;8350;52.316;10.530;2023-01-19T12:08:36;2.30;1.00
16479;DHT22;8350;52.316;10.530;2023-01-19T12:11:04;2.20;3.00
16479;DHT22;8350;52.316;10.530;2023-01-19T12:13:33;2.20;7.80
16479;DHT22;8350;52.316;10.530;2023-01-19T12:16:05;2.20;11.20
16479;DHT22;8350;52.316;10.530;2023-01-19T12:18:36;2.20;14.90
16479;DHT22;8350;52.316;10.530;2023-01-19T12:21:04;2.20;19.10
16479;DHT22;8350;52.316;10.530;2023-01-19T12:23:45;2.20;21.10
16479;DHT22;8350;52.316;10.530;2023-01-19T12:26:35;2.20;31.10
16479;DHT22;8350;52.316;10.530;2023-01-19T12:29:11;2.20;40.50
16479;DHT22;8350;52.316;10.530;2023-01-19T12:31:39;2.20;29.70
16479;DHT22;8350;52.316;10.530;2023-01-19T12:34:35;2.30;39.60
16479;DHT22;8350;52.316;10.530;2023-01-19T12:37:06;2.30;27.10
16479;DHT22;8350;52.316;10.530;2023-01-19T12:39:34;2.40;34.50
16479;DHT22;8350;52.316;10.530;2023-01-19T12:42:06;2.40;27.20
16479;DHT22;8350;52.316;10.530;2023-01-19T12:44:39;2.50;20.10
16479;DHT22;8350;52.316;10.530;2023-01-19T12:47:20;2.50;15.20
16479;DHT22;8350;52.316;10.530;2023-01-19T12:49:50;2.50;16.90
16479;DHT22;8350;52.316;10.530;2023-01-19T12:52:28;2.50;17.60
16479;DHT22;8350;52.316;10.530;2023-01-19T12:55:05;2.50;17.20
16479;DHT22;8350;52.316;10.530;2023-01-19T12:57:36;2.60;15.80
16479;DHT22;8350;52.316;10.530;2023-01-19T13:00:24;2.50;11.90
16479;DHT22;8350;52.316;10.530;2023-01-19T13:02:54;2.60;20.40
16479;DHT22;8350;52.316;10.530;2023-01-19T13:05:24;2.60;8.60
16479;DHT22;8350;52.316;10.530;2023-01-19T13:08:13;2.50;13.80
16479;DHT22;8350;52.316;10.530;2023-01-19T13:17:28;2.60;21.60
16479;DHT22;8350;52.316;10.530;2023-01-19T13:20:02;2.70;16.50
16479;DHT22;8350;52.316;10.530;2023-01-19T13:25:34;2.70;46.40
16479;DHT22;8350;52.316;10.530;2023-01-19T13:28:09;2.60;74.40
16479;DHT22;8350;52.316;10.530;2023-01-19T13:30:42;2.50;96.90
16479;DHT22;8350;52.316;10.530;2023-01-19T13:33:18;2.50;99.90
16479;DHT22;8350;52.316;10.530;2023-01-19T13:35:50;2.40;99.90
16479;DHT22;8350;52.316;10.530;2023-01-19T13:38:18;2.40;99.90
16479;DHT22;8350;52.316;10.530;2023-01-19T13:40:45;2.40;99.90
16479;DHT22;8350;52.316;10.530;2023-01-19T13:43:16;2.40;99.90
16479;DHT22;8350;52.316;10.530;2023-01-19T13:45:47;2.40;99.90
16479;DHT22;8350;52.316;10.530;2023-01-19T13:48:18;2.40;99.90
16479;DHT22;8350;52.316;10.530;2023-01-19T13:51:00;2.20;99.90
16479;DHT22;8350;52.316;10.530;2023-01-19T13:53:29;2.10;99.90
16479;DHT22;8350;52.316;10.530;2023-01-19T13:56:23;2.00;99.90
16479;DHT22;8350;52.316;10.530;2023-01-19T13:59:00;1.90;99.90
16479;DHT22;8350;52.316;10.530;2023-01-19T14:01:29;1.90;99.90
16479;DHT22;8350;52.316;10.530;2023-01-19T14:03:59;1.90;99.90
16479;DHT22;8350;52.316;10.530;2023-01-19T14:06:35;1.90;99.90
16479;DHT22;8350;52.316;10.530;2023-01-19T14:09:07;1.90;99.90
16479;DHT22;8350;52.316;10.530;2023-01-19T14:11:34;1.80;99.90
16479;DHT22;8350;52.316;10.530;2023-01-19T14:14:01;1.80;99.90
16479;DHT22;8350;52.316;10.530;2023-01-19T14:16:36;1.80;99.90
16479;DHT22;8350;52.316;10.530;2023-01-19T14:19:04;1.70;99.90
16479;DHT22;8350;52.316;10.530;2023-01-19T14:21:39;1.70;99.90
16479;DHT22;8350;52.316;10.530;2023-01-19T14:24:13;1.70;99.90
16479;DHT22;8350;52.316;10.530;2023-01-19T14:26:44;1.70;99.90
16479;DHT22;8350;52.316;10.530;2023-01-19T14:29:18;1.70;99.90
16479;DHT22;8350;52.316;10.530;2023-01-19T14:31:48;1.70;99.90
16479;DHT22;8350;52.316;10.530;2023-01-19T14:34:36;1.60;99.90
16479;DHT22;8350;52.316;10.530;2023-01-19T14:37:12;1.60;99.90
16479;DHT22;8350;52.316;10.530;2023-01-19T14:39:44;1.50;99.90
16479;DHT22;8350;52.316;10.530;2023-01-19T14:42:14;1.60;99.90
16479;DHT22;8350;52.316;10.530;2023-01-19T14:44:45;1.80;99.90
16479;DHT22;8350;52.316;10.530;2023-01-19T14:47:25;1.90;99.90
16479;DHT22;8350;52.316;10.530;2023-01-19T14:49:57;1.80;99.90
16479;DHT22;8350;52.316;10.530;2023-01-19T14:52:28;1.80;99.90
16479;DHT22;8350;52.316;10.530;2023-01-19T14:55:00;1.80;99.90
16479;DHT22;8350;52.316;10.530;2023-01-19T14:57:32;1.80;99.90
16479;DHT22;8350;52.316;10.530;2023-01-19T15:00:00;1.80;99.90
16479;DHT22;8350;52.316;10.530;2023-01-19T15:02:28;1.80;99.90
16479;DHT22;8350;52.316;10.530;2023-01-19T15:04:58;1.80;99.90
16479;DHT22;8350;52.316;10.530;2023-01-19T15:07:26;1.80;99.90
16479;DHT22;8350;52.316;10.530;2023-01-19T15:09:53;1.90;99.90
16479;DHT22;8350;52.316;10.530;2023-01-19T15:12:22;1.80;99.90
16479;DHT22;8350;52.316;10.530;2023-01-19T15:14:52;1.70;99.90
16479;DHT22;8350;52.316;10.530;2023-01-19T15:17:21;1.80;99.90
16479;DHT22;8350;52.316;10.530;2023-01-19T15:19:53;1.80;99.90
16479;DHT22;8350;52.316;10.530;2023-01-19T15:22:24;1.80;99.90
16479;DHT22;8350;52.316;10.530;2023-01-19T15:24:52;1.90;99.90
16479;DHT22;8350;52.316;10.530;2023-01-19T15:27:22;1.90;99.90
16479;DHT22;8350;52.316;10.530;2023-01-19T15:29:48;1.80;99.90
16479;DHT22;8350;52.316;10.530;2023-01-19T15:32:15;1.90;99.90
16479;DHT22;8350;52.316;10.530;2023-01-19T15:34:42;1.90;99.90
16479;DHT22;8350;52.316;10.530;2023-01-19T15:37:09;1.90;99.90
16479;DHT22;8350;52.316;10.530;2023-01-19T15:39:38;2.00;99.90
16479;DHT22;8350;52.316;10.530;2023-01-19T15:42:09;2.00;99.90
16479;DHT22;8350;52.316;10.530;2023-01-19T15:44:36;2.00;99.90
16479;DHT22;8350;52.316;10.530;2023-01-19T15:47:03;2.00;99.90
16479;DHT22;8350;52.316;10.530;2023-01-19T15:49:30;1.90;99.90
16479;DHT22;8350;52.316;10.530;2023-01-19T15:51:57;1.90;99.90
16479;DHT22;8350;52.316;10.530;2023-01-19T15:54:24;1.90;99.90
16479;DHT22;8350;52.316;10.530;2023-01-19T15:56:53;1.80;99.90
16479;DHT22;8350;52.316;10.530;2023-01-19T15:59:24;1.90;99.90
16479;DHT22;8350;52.316;10.530;2023-01-19T16:01:51;1.80;99.90
16479;DHT22;8350;52.316;10.530;2023-01-19T16:04:18;1.70;99.90
16479;DHT22;8350;52.316;10.530;2023-01-19T16:06:45;1.70;99.90
16479;DHT22;8350;52.316;10.530;2023-01-19T16:09:14;1.70;99.90
16479;DHT22;8350;52.316;10.530;2023-01-19T16:11:45;1.70;99.90
16479;DHT22;8350;52.316;10.530;2023-01-19T16:14:14;1.70;99.90
16479;DHT22;8350;52.316;10.530;2023-01-19T16:16:44;1.70;99.90
16479;DHT22;8350;52.316;10.530;2023-01-19T16:19:13;1.70;99.90
16479;DHT22;8350;52.316;10.530;2023-01-19T16:21:40;1.70;99.90
16479;DHT22;8350;52.316;10.530;2023-01-19T16:24:09;1.70;99.90
16479;DHT22;8350;52.316;10.530;2023-01-19T16:26:36;1.60;99.90
16479;DHT22;8350;52.316;10.530;2023-01-19T16:29:06;1.70;99.90